createdAt,value
2023-07-18T00:01:14.331Z,25.77
2023-07-18T00:03:43.428Z,25.88
2023-07-18T00:06:12.515Z,25.98
2023-07-18T00:08:42.287Z,26.05
2023-07-18T00:11:12.035Z,26.12
2023-07-18T00:13:41.324Z,26.14
2023-07-18T00:16:18.480Z,26.24
2023-07-18T00:18:56.356Z,26.29
2023-07-18T00:21:25.422Z,26.36
2023-07-18T00:23:54.371Z,26.41
2023-07-18T00:26:24.832Z,26.45
2023-07-18T00:29:14.033Z,26.49
2023-07-18T00:31:43.170Z,26.52
2023-07-18T00:34:12.727Z,26.56
2023-07-18T00:36:46.418Z,26.56
2023-07-18T00:39:15.524Z,26.55
2023-07-18T00:41:44.600Z,26.51
2023-07-18T00:44:13.726Z,26.45
2023-07-18T00:46:43.468Z,26.36
2023-07-18T00:49:32.819Z,26.26
2023-07-18T00:52:02.729Z,26.00
2023-07-18T00:54:31.879Z,25.83
2023-07-18T00:57:02.663Z,25.75
2023-07-18T00:59:32.809Z,25.71
2023-07-18T01:02:03.415Z,25.65
2023-07-18T01:04:32.607Z,25.58
2023-07-18T01:07:02.513Z,25.54
2023-07-18T01:09:32.458Z,25.50
2023-07-18T01:12:02.150Z,25.40
2023-07-18T01:14:31.955Z,25.25
2023-07-18T01:17:01.260Z,25.11
2023-07-18T01:19:31.250Z,24.97
2023-07-18T01:22:00.685Z,24.83
2023-07-18T01:24:50.641Z,24.72
2023-07-18T01:27:39.505Z,24.58
2023-07-18T01:30:36.478Z,24.45
2023-07-18T01:33:47.485Z,24.37
2023-07-18T01:36:16.499Z,24.36
2023-07-18T01:38:45.885Z,24.35
2023-07-18T01:41:15.284Z,24.35
2023-07-18T01:43:44.323Z,24.32
2023-07-18T01:46:13.309Z,24.27
2023-07-18T01:48:42.608Z,24.22
2023-07-18T01:51:11.904Z,24.13
2023-07-18T01:53:41.015Z,24.05
2023-07-18T01:56:10.584Z,24.00
2023-07-18T01:58:39.935Z,23.97
2023-07-18T02:01:10.314Z,23.96
2023-07-18T02:03:39.310Z,23.99
2023-07-18T02:06:10.090Z,24.01
2023-07-18T02:08:39.732Z,24.03
2023-07-18T02:11:29.053Z,24.04
2023-07-18T02:14:54.091Z,24.05
2023-07-18T02:17:23.140Z,24.01
2023-07-18T02:19:52.314Z,23.97
2023-07-18T02:22:22.216Z,23.93
2023-07-18T02:24:51.370Z,23.89
2023-07-18T02:27:21.056Z,23.83
2023-07-18T02:29:51.320Z,23.79
2023-07-18T02:32:22.844Z,23.74
2023-07-18T02:36:11.355Z,23.69
2023-07-18T02:39:03.621Z,23.63
2023-07-18T02:41:33.460Z,23.57
2023-07-18T02:44:04.745Z,23.53
2023-07-18T02:46:34.047Z,23.51
2023-07-18T02:49:04.061Z,23.47
2023-07-18T02:51:33.203Z,23.42
2023-07-18T02:54:03.309Z,23.39
2023-07-18T02:56:35.094Z,23.37
2023-07-18T02:59:04.812Z,23.34
2023-07-18T03:01:34.765Z,23.31
2023-07-18T03:04:04.154Z,23.28
2023-07-18T03:06:33.409Z,23.25
2023-07-18T03:09:22.767Z,23.21
2023-07-18T03:11:52.289Z,23.18
2023-07-18T03:14:23.059Z,23.17
2023-07-18T03:16:54.676Z,23.16
2023-07-18T03:19:43.938Z,23.15
2023-07-18T03:22:33.951Z,23.12
2023-07-18T03:25:28.183Z,23.10
2023-07-18T03:27:57.602Z,23.11
2023-07-18T03:30:55.874Z,23.12
2023-07-18T03:33:25.103Z,23.08
2023-07-18T03:35:54.291Z,23.07
2023-07-18T03:38:25.474Z,23.05
2023-07-18T03:41:17.173Z,23.08
2023-07-18T03:44:09.348Z,23.08
2023-07-18T03:46:40.377Z,23.10
2023-07-18T03:49:11.256Z,23.13
2023-07-18T03:51:40.341Z,23.15
2023-07-18T03:54:09.932Z,23.20
2023-07-18T03:56:39.666Z,23.24
2023-07-18T03:59:10.851Z,23.26
2023-07-18T04:01:42.083Z,23.26
2023-07-18T04:04:14.142Z,23.32
2023-07-18T04:06:44.455Z,23.38
2023-07-18T04:09:13.724Z,23.45
2023-07-18T04:11:46.659Z,23.50
2023-07-18T04:14:15.771Z,23.53
2023-07-18T04:16:45.347Z,23.57
2023-07-18T04:19:15.302Z,23.57
2023-07-18T04:22:05.055Z,23.59
2023-07-18T04:24:34.991Z,23.66
2023-07-18T04:27:05.661Z,23.66
2023-07-18T04:29:35.371Z,23.67
2023-07-18T04:32:27.587Z,23.70
2023-07-18T04:34:56.978Z,23.79
2023-07-18T04:37:28.822Z,23.89
2023-07-18T04:40:20.129Z,24.00
2023-07-18T04:42:51.873Z,24.08
2023-07-18T04:45:48.089Z,24.11
2023-07-18T04:48:56.699Z,24.20
2023-07-18T04:56:55.641Z,24.40
2023-07-18T05:00:44.919Z,24.52
2023-07-18T05:04:03.332Z,24.61
2023-07-18T05:06:49.843Z,24.70
2023-07-18T05:09:20.643Z,24.81
2023-07-18T05:11:51.633Z,24.88
2023-07-18T05:14:23.962Z,24.92
2023-07-18T05:16:57.092Z,24.98
2023-07-18T05:19:27.593Z,25.08
2023-07-18T05:52:42.602Z,26.05
2023-07-18T05:55:14.615Z,26.11
2023-07-18T05:57:44.999Z,26.18
2023-07-18T06:00:18.575Z,26.26
2023-07-18T06:02:48.865Z,26.31
2023-07-18T06:05:18.389Z,26.41
2023-07-18T06:07:48.756Z,26.47
2023-07-18T06:10:20.043Z,26.56
2023-07-18T06:12:52.166Z,26.62
2023-07-18T06:15:26.664Z,26.72
2023-07-18T06:18:19.118Z,26.87
2023-07-18T06:20:52.334Z,26.94
2023-07-18T06:23:22.785Z,26.97
2023-07-18T06:26:00.211Z,27.01
2023-07-18T06:28:29.767Z,27.08
2023-07-18T06:31:00.280Z,27.13
2023-07-18T06:33:30.346Z,27.19
2023-07-18T06:36:00.357Z,27.30
2023-07-18T06:38:29.844Z,27.37
2023-07-18T06:41:06.521Z,27.47
2023-07-18T06:43:36.458Z,27.59
2023-07-18T06:49:51.502Z,27.78
2023-07-18T06:53:03.535Z,27.91
2023-07-18T06:55:55.661Z,28.01
2023-07-18T07:04:21.524Z,28.33
2023-07-18T07:06:58.280Z,28.45
2023-07-18T07:10:09.843Z,28.58
2023-07-18T07:13:04.292Z,28.69
2023-07-18T07:15:57.818Z,28.79
2023-07-18T07:19:07.625Z,28.86
2023-07-18T07:23:13.508Z,29.01
2023-07-18T07:32:14.773Z,29.20
2023-07-18T07:35:05.396Z,29.38
2023-07-18T07:37:35.752Z,29.48
2023-07-18T07:40:26.845Z,29.61
2023-07-18T07:43:22.187Z,29.68
2023-07-18T07:46:29.622Z,29.73
2023-07-18T07:48:59.292Z,29.71
2023-07-18T07:51:28.622Z,29.71
2023-07-18T07:53:58.993Z,29.76
2023-07-18T07:56:28.390Z,29.75
2023-07-18T07:59:36.528Z,29.78
2023-07-18T08:03:04.029Z,29.86
2023-07-18T08:05:54.092Z,29.99
2023-07-18T08:08:24.728Z,30.11
2023-07-18T08:10:54.319Z,30.20
2023-07-18T08:13:25.350Z,30.26
2023-07-18T08:15:55.440Z,30.31
2023-07-18T08:18:24.589Z,30.33
2023-07-18T08:20:53.824Z,30.44
2023-07-18T08:23:23.109Z,30.54
2023-07-18T08:25:51.886Z,30.64
2023-07-18T08:28:21.491Z,30.76
2023-07-18T08:30:50.330Z,30.85
2023-07-18T08:33:20.500Z,30.89
2023-07-18T08:35:50.718Z,30.92
2023-07-18T08:38:19.573Z,30.96
2023-07-18T08:40:49.807Z,31.05
2023-07-18T08:43:19.829Z,31.10
2023-07-18T08:45:51.414Z,31.09
2023-07-18T08:48:20.375Z,31.11
2023-07-18T08:50:49.427Z,31.14
2023-07-18T08:53:18.791Z,31.16
2023-07-18T08:55:48.820Z,31.19
2023-07-18T08:58:20.577Z,31.23
2023-07-18T09:00:51.066Z,31.28
2023-07-18T09:03:20.145Z,31.40
2023-07-18T09:05:49.224Z,31.44
2023-07-18T09:08:19.442Z,31.49
2023-07-18T09:11:01.708Z,31.52
2023-07-18T09:13:38.247Z,31.62
2023-07-18T09:16:16.472Z,31.73
2023-07-18T09:18:51.109Z,31.85
2023-07-18T09:21:23.488Z,31.96
2023-07-18T09:23:56.413Z,31.98
2023-07-18T09:26:27.698Z,32.08
2023-07-18T09:28:58.037Z,32.11
2023-07-18T09:31:28.915Z,32.20
2023-07-18T09:34:02.381Z,32.32
2023-07-18T09:36:36.407Z,32.41
2023-07-18T09:39:08.348Z,32.48
2023-07-18T09:41:39.266Z,32.52
2023-07-18T09:44:30.904Z,32.60
2023-07-18T09:46:58.443Z,32.61
2023-07-18T09:49:33.096Z,32.58
2023-07-18T09:52:06.279Z,32.63
2023-07-18T09:54:58.490Z,32.65
2023-07-18T09:57:28.859Z,32.63
2023-07-18T10:00:03.273Z,32.66
2023-07-18T10:02:38.046Z,32.76
2023-07-18T10:05:10.317Z,32.86
2023-07-18T10:07:41.133Z,32.94
2023-07-18T10:10:12.318Z,32.92
2023-07-18T10:12:59.896Z,32.99
2023-07-18T10:15:29.826Z,33.13
2023-07-18T10:18:19.821Z,33.23
2023-07-18T10:20:59.554Z,33.36
2023-07-18T10:23:42.141Z,33.46
2023-07-18T10:26:11.572Z,33.39
2023-07-18T10:28:45.704Z,33.35
2023-07-18T10:31:31.000Z,33.38
2023-07-18T10:34:11.272Z,33.45
2023-07-18T10:36:41.566Z,33.44
2023-07-18T10:39:13.185Z,33.43
2023-07-18T10:41:46.053Z,33.46
2023-07-18T10:44:16.213Z,33.49
2023-07-18T10:46:47.039Z,33.49
2023-07-18T10:49:17.414Z,33.60
2023-07-18T10:51:48.395Z,33.72
2023-07-18T10:54:19.932Z,33.87
2023-07-18T10:56:52.218Z,33.86
2023-07-18T10:59:23.473Z,33.93
2023-07-18T11:01:55.566Z,34.04
2023-07-18T11:04:28.832Z,34.10
2023-07-18T11:07:00.807Z,34.21
2023-07-18T11:09:33.433Z,34.26
2023-07-18T11:12:11.652Z,34.26
2023-07-18T11:14:42.857Z,34.25
2023-07-18T11:17:18.025Z,34.31
2023-07-18T11:19:58.427Z,34.38
2023-07-18T11:22:30.481Z,34.40
2023-07-18T11:25:02.549Z,34.44
2023-07-18T11:27:32.693Z,34.45
2023-07-18T11:30:03.817Z,34.48
2023-07-18T11:32:40.661Z,34.50
2023-07-18T11:35:13.392Z,34.52
2023-07-18T11:37:43.218Z,34.53
2023-07-18T11:40:18.432Z,34.54
2023-07-18T11:42:50.144Z,34.60
2023-07-18T11:45:21.633Z,34.70
2023-07-18T11:47:53.872Z,34.67
2023-07-18T11:50:29.445Z,34.69
2023-07-18T11:53:00.291Z,34.73
2023-07-18T11:55:31.476Z,34.77
2023-07-18T11:58:08.351Z,34.77
2023-07-18T12:00:38.166Z,34.83
2023-07-18T12:03:07.413Z,34.89
2023-07-18T12:05:36.674Z,35.01
2023-07-18T12:08:07.102Z,35.09
2023-07-18T12:10:38.872Z,35.14
2023-07-18T12:13:10.034Z,35.21
2023-07-18T12:15:39.751Z,35.30
2023-07-18T12:18:08.966Z,35.54
2023-07-18T12:20:38.310Z,35.74
2023-07-18T12:23:07.917Z,35.72
2023-07-18T12:25:37.527Z,35.63
2023-07-18T12:28:09.841Z,35.65
2023-07-18T12:30:39.832Z,35.63
2023-07-18T12:33:10.683Z,35.73
2023-07-18T12:35:39.918Z,35.74
2023-07-18T12:38:09.825Z,35.83
2023-07-18T12:40:39.965Z,35.97
2023-07-18T12:43:09.150Z,36.01
2023-07-18T12:45:38.258Z,36.03
2023-07-18T12:48:07.526Z,36.01
2023-07-18T12:50:56.644Z,35.94
2023-07-18T12:53:27.131Z,35.86
2023-07-18T12:55:56.468Z,35.92
2023-07-18T12:58:25.865Z,35.91
2023-07-18T13:00:55.118Z,35.96
2023-07-18T13:03:24.584Z,36.03
2023-07-18T13:05:53.967Z,36.04
2023-07-18T13:08:23.074Z,35.99
2023-07-18T13:10:52.077Z,35.99
2023-07-18T13:13:21.107Z,36.05
2023-07-18T13:15:50.237Z,36.18
2023-07-18T13:18:20.277Z,36.22
2023-07-18T13:20:49.480Z,36.22
2023-07-18T13:23:19.205Z,36.43
2023-07-18T13:25:48.932Z,36.64
2023-07-18T13:28:17.783Z,36.62
2023-07-18T13:30:47.425Z,36.66
2023-07-18T13:33:17.341Z,36.72
2023-07-18T13:35:46.319Z,36.70
2023-07-18T13:38:15.674Z,36.69
2023-07-18T13:40:46.925Z,36.74
2023-07-18T13:43:18.582Z,36.85
2023-07-18T13:45:51.433Z,36.73
2023-07-18T13:48:22.425Z,36.69
2023-07-18T13:50:51.501Z,36.72
2023-07-18T13:53:20.534Z,36.76
2023-07-18T13:55:49.687Z,36.73
2023-07-18T13:58:18.632Z,36.82
2023-07-18T14:00:48.003Z,36.88
2023-07-18T14:03:34.293Z,36.86
2023-07-18T14:06:12.252Z,36.77
2023-07-18T14:08:43.375Z,36.68
2023-07-18T14:11:17.153Z,36.67
2023-07-18T14:13:47.320Z,36.70
2023-07-18T14:16:21.866Z,36.75
2023-07-18T14:18:57.028Z,36.79
2023-07-18T14:21:29.758Z,36.64
2023-07-18T14:24:00.086Z,36.66
2023-07-18T14:26:30.275Z,36.73
2023-07-18T14:29:01.070Z,36.78
2023-07-18T14:31:31.256Z,36.84
2023-07-18T14:34:06.783Z,36.86
2023-07-18T14:36:36.342Z,36.94
2023-07-18T14:39:06.250Z,37.02
2023-07-18T14:41:35.659Z,37.11
2023-07-18T14:44:05.468Z,37.22
2023-07-18T14:46:36.182Z,37.25
2023-07-18T14:49:06.498Z,37.25
2023-07-18T14:51:36.871Z,37.17
2023-07-18T14:54:07.268Z,37.11
2023-07-18T14:56:37.744Z,37.02
2023-07-18T14:59:07.722Z,36.95
2023-07-18T15:01:37.945Z,36.85
2023-07-18T15:04:07.165Z,37.02
2023-07-18T15:06:36.252Z,37.10
2023-07-18T15:09:05.372Z,37.31
2023-07-18T15:11:34.432Z,37.49
2023-07-18T15:14:03.502Z,37.58
2023-07-18T15:16:32.697Z,37.55
2023-07-18T15:19:01.996Z,37.50
2023-07-18T15:21:31.098Z,37.58
2023-07-18T15:24:00.652Z,37.59
2023-07-18T15:26:29.731Z,37.55
2023-07-18T15:28:58.752Z,37.54
2023-07-18T15:31:28.030Z,37.63
2023-07-18T15:33:57.319Z,37.90
2023-07-18T15:36:28.127Z,38.07
2023-07-18T15:38:56.908Z,38.13
2023-07-18T15:41:25.977Z,38.02
2023-07-18T15:43:55.213Z,37.79
2023-07-18T15:46:24.414Z,37.53
2023-07-18T15:48:53.329Z,37.13
2023-07-18T15:51:23.471Z,36.92
2023-07-18T15:53:52.549Z,36.72
2023-07-18T15:56:22.718Z,36.58
2023-07-18T15:58:53.316Z,36.45
2023-07-18T16:01:24.528Z,36.50
2023-07-18T16:03:53.885Z,36.58
2023-07-18T16:06:23.982Z,36.55
2023-07-18T16:08:59.451Z,36.42
2023-07-18T16:11:28.731Z,36.37
2023-07-18T16:13:58.004Z,36.41
2023-07-18T16:16:27.680Z,36.51
2023-07-18T16:19:00.491Z,36.56
2023-07-18T16:21:30.116Z,36.64
2023-07-18T16:23:59.505Z,36.74
2023-07-18T16:26:29.854Z,36.78
2023-07-18T16:28:59.614Z,36.78
2023-07-18T16:31:28.778Z,36.78
2023-07-18T16:33:57.909Z,36.78
2023-07-18T16:36:27.659Z,36.80
2023-07-18T16:38:57.516Z,36.78
2023-07-18T16:41:26.524Z,36.78
2023-07-18T16:43:55.430Z,36.80
2023-07-18T16:46:24.596Z,36.75
2023-07-18T16:48:53.857Z,36.56
2023-07-18T16:51:23.568Z,36.52
2023-07-18T16:53:52.599Z,36.54
2023-07-18T16:56:22.838Z,36.58
2023-07-18T16:58:51.852Z,36.58
2023-07-18T17:01:21.430Z,36.52
2023-07-18T17:03:50.660Z,36.51
2023-07-18T17:06:19.918Z,36.43
2023-07-18T17:08:49.410Z,36.18
2023-07-18T17:11:22.307Z,35.88
2023-07-18T17:13:52.729Z,35.65
2023-07-18T17:16:23.244Z,35.42
2023-07-18T17:18:53.069Z,35.20
2023-07-18T17:21:22.276Z,35.01
2023-07-18T17:23:51.987Z,34.85
2023-07-18T17:26:22.754Z,34.72
2023-07-18T17:28:53.220Z,34.64
2023-07-18T17:31:23.339Z,34.51
2023-07-18T17:33:52.856Z,34.38
2023-07-18T17:36:22.413Z,34.25
2023-07-18T17:41:24.741Z,33.98
2023-07-18T17:43:54.450Z,33.87
2023-07-18T17:46:23.620Z,33.70
2023-07-18T17:48:52.881Z,33.50
2023-07-18T17:51:22.115Z,33.32
2023-07-18T17:53:52.198Z,33.17
2023-07-18T17:56:22.687Z,33.02
2023-07-18T17:58:51.810Z,32.86
2023-07-18T18:01:20.985Z,32.70
2023-07-18T18:03:50.846Z,32.56
2023-07-18T18:06:20.742Z,32.43
2023-07-18T18:08:51.359Z,32.37
2023-07-18T18:11:21.773Z,32.27
2023-07-18T18:13:52.667Z,32.10
2023-07-18T18:16:22.191Z,31.94
2023-07-18T18:18:52.232Z,31.79
2023-07-18T18:21:21.486Z,31.65
2023-07-18T18:23:51.306Z,31.53
2023-07-18T18:26:21.777Z,31.40
2023-07-18T18:28:52.660Z,31.30
2023-07-18T18:31:23.876Z,31.26
2023-07-18T18:33:54.180Z,31.23
2023-07-18T18:36:24.224Z,31.22
2023-07-18T18:38:53.789Z,31.16
2023-07-18T18:41:23.094Z,31.12
2023-07-18T18:43:52.836Z,31.00
2023-07-18T18:46:22.918Z,30.88
2023-07-18T18:48:53.346Z,30.74
2023-07-18T18:51:24.072Z,30.61
2023-07-18T18:53:54.071Z,30.49
2023-07-18T18:56:23.588Z,30.37
2023-07-18T18:58:52.939Z,30.25
2023-07-18T19:01:23.209Z,30.14
2023-07-18T19:03:52.922Z,30.06
2023-07-18T19:06:24.189Z,29.99
2023-07-18T19:08:54.832Z,29.89
2023-07-18T19:11:25.489Z,29.83
2023-07-18T19:13:55.956Z,29.83
2023-07-18T19:16:39.033Z,29.84
2023-07-18T19:19:13.119Z,29.78
2023-07-18T19:21:43.127Z,29.68
2023-07-18T19:24:12.636Z,29.56
2023-07-18T19:26:57.903Z,29.41
2023-07-18T19:29:27.288Z,29.28
2023-07-18T19:31:56.971Z,29.14
2023-07-18T19:34:26.749Z,29.00
2023-07-18T19:36:56.814Z,28.87
2023-07-18T19:39:27.489Z,28.75
2023-07-18T19:41:57.143Z,28.65
2023-07-18T19:44:48.612Z,28.56
2023-07-18T19:47:18.127Z,28.46
2023-07-18T19:49:49.505Z,28.36
2023-07-18T19:52:20.640Z,28.27
2023-07-18T19:54:50.951Z,28.19
2023-07-18T19:57:23.427Z,28.13
2023-07-18T19:59:54.852Z,28.07
2023-07-18T20:02:24.616Z,27.98
2023-07-18T20:04:54.234Z,27.90
2023-07-18T20:07:24.360Z,27.81
2023-07-18T20:09:55.996Z,27.76
2023-07-18T20:12:25.376Z,27.72
2023-07-18T20:14:55.006Z,27.70
2023-07-18T20:17:24.828Z,27.67
2023-07-18T20:19:54.330Z,27.63
2023-07-18T20:22:23.729Z,27.59
2023-07-18T20:24:53.100Z,27.50
2023-07-18T20:27:22.032Z,27.46
2023-07-18T20:29:52.187Z,27.41
2023-07-18T20:32:21.710Z,27.35
2023-07-18T20:34:51.210Z,27.27
2023-07-18T20:37:20.277Z,27.13
2023-07-18T20:39:49.844Z,27.03
2023-07-18T20:42:19.334Z,26.95
2023-07-18T20:44:48.965Z,26.88
2023-07-18T20:47:18.523Z,26.82
2023-07-18T20:49:49.395Z,26.77
2023-07-18T20:52:18.892Z,26.69
2023-07-18T20:54:48.538Z,26.62
2023-07-18T20:57:18.297Z,26.54
2023-07-18T20:59:48.087Z,26.46
2023-07-18T21:02:17.629Z,26.34
2023-07-18T21:05:09.893Z,26.32
2023-07-18T21:07:39.987Z,26.20
2023-07-18T21:10:35.197Z,26.11
2023-07-18T21:13:09.002Z,25.98
2023-07-18T21:16:02.052Z,25.90
2023-07-18T21:18:32.620Z,25.81
2023-07-18T21:21:02.199Z,25.73
2023-07-18T21:23:47.627Z,25.65
2023-07-18T21:26:36.853Z,25.58
2023-07-18T21:29:23.220Z,25.48
2023-07-18T21:31:55.680Z,25.40
2023-07-18T21:34:27.136Z,25.32
2023-07-18T21:36:59.405Z,25.27
2023-07-18T21:39:53.960Z,25.22
2023-07-18T21:42:24.682Z,25.18
2023-07-18T21:45:13.160Z,25.22
2023-07-18T21:48:03.680Z,25.29
2023-07-18T21:50:43.286Z,25.32
2023-07-18T21:53:13.420Z,25.37
2023-07-18T21:55:42.863Z,25.42
2023-07-18T21:58:11.837Z,25.46
2023-07-18T22:01:01.902Z,25.51
2023-07-18T22:03:33.019Z,25.57
2023-07-18T22:06:05.558Z,25.62
2023-07-18T22:08:59.282Z,25.68
2023-07-18T22:11:29.196Z,25.72
2023-07-18T22:14:00.001Z,25.73
2023-07-18T22:16:30.034Z,25.77
2023-07-18T22:18:59.723Z,25.81
2023-07-18T22:21:28.868Z,25.86
2023-07-18T22:23:58.783Z,25.89
2023-07-18T22:26:29.694Z,25.89
2023-07-18T22:29:00.551Z,25.89
2023-07-18T22:32:10.720Z,25.85
2023-07-18T22:34:40.089Z,25.83
2023-07-18T22:37:10.782Z,25.82
2023-07-18T22:39:42.829Z,25.81
2023-07-18T22:42:17.236Z,25.81
2023-07-18T22:44:47.655Z,25.82
2023-07-18T22:47:17.383Z,25.82
2023-07-18T22:49:48.556Z,25.82
2023-07-18T22:52:18.755Z,25.82
2023-07-18T22:54:48.581Z,25.77
2023-07-18T22:57:38.889Z,25.74
2023-07-18T23:00:11.566Z,25.67
2023-07-18T23:02:42.896Z,25.69
2023-07-18T23:05:12.678Z,25.67
2023-07-18T23:07:42.262Z,25.65
2023-07-18T23:10:52.739Z,25.59
2023-07-18T23:13:24.662Z,25.56
2023-07-18T23:15:54.201Z,25.53
2023-07-18T23:18:23.227Z,25.47
2023-07-18T23:20:53.314Z,25.39
2023-07-18T23:23:42.382Z,25.31
2023-07-18T23:26:11.607Z,25.24
2023-07-18T23:28:41.969Z,25.15
2023-07-18T23:31:11.096Z,25.04
2023-07-18T23:33:40.672Z,24.96
2023-07-18T23:36:11.469Z,24.88
2023-07-18T23:39:01.549Z,24.80
2023-07-18T23:41:30.646Z,24.73
2023-07-18T23:44:00.033Z,24.62
2023-07-18T23:46:29.281Z,24.49
2023-07-18T23:48:58.470Z,24.37
2023-07-18T23:51:47.499Z,24.26
2023-07-18T23:54:16.486Z,24.17
2023-07-18T23:56:45.413Z,24.11
2023-07-18T23:59:34.532Z,24.03
